Time;durP1;ratioP1;P1;durP2;ratioP2;P2;SDS_P1;SDS_P2;PMS_P1;PMS_P2;Temp;Humidity;BMP_temperature;BMP_pressure;BME280_temperature;BME280_humidity;BME280_pressure;Samples;Min_cycle;Max_cycle;Signal;HPM_P1;HPM_P2
2021/05/25 00:00:27;;;;;;;0.20;0.20;;;24.40;41.80;;;;;;4390285;32;20065;-37
2021/05/25 00:02:55;;;;;;;0.80;0.60;;;24.40;41.70;;;;;;4390196;32;20525;-36
2021/05/25 00:05:29;;;;;;;0.95;0.65;;;24.30;41.50;;;;;;4376408;32;20078;-36
2021/05/25 00:07:56;;;;;;;0.50;0.30;;;24.30;41.60;;;;;;4390124;32;20521;-36
2021/05/25 00:10:24;;;;;;;1.27;0.70;;;24.30;41.70;;;;;;4364214;32;20128;-35
2021/05/25 00:12:50;;;;;;;0.73;0.50;;;24.30;41.80;;;;;;4390477;32;20514;-36
2021/05/25 00:15:21;;;;;;;1.20;0.50;;;24.30;41.80;;;;;;4390306;32;20092;-36
2021/05/25 00:17:48;;;;;;;1.00;0.52;;;24.30;41.80;;;;;;4389826;32;20077;-38
2021/05/25 00:20:15;;;;;;;1.15;0.30;;;24.30;41.90;;;;;;4392114;32;20152;-35
2021/05/25 00:22:42;;;;;;;0.40;0.40;;;24.30;42.00;;;;;;4391345;32;20517;-35
2021/05/25 00:25:10;;;;;;;0.73;0.30;;;24.30;42.00;;;;;;4405227;32;20120;-37
2021/05/25 00:27:37;;;;;;;3.72;0.50;;;24.30;42.00;;;;;;4404945;32;20102;-39
2021/05/25 00:30:05;;;;;;;0.88;0.50;;;24.30;42.00;;;;;;4391610;32;20053;-37
2021/05/25 00:32:31;;;;;;;0.30;0.30;;;24.30;42.20;;;;;;4405402;32;20081;-37
2021/05/25 00:34:58;;;;;;;0.80;0.50;;;24.30;42.40;;;;;;4405089;32;20092;-35
2021/05/25 00:37:24;;;;;;;1.00;0.40;;;24.30;42.50;;;;;;4404785;32;20062;-37
2021/05/25 00:39:51;;;;;;;1.30;0.80;;;24.30;42.40;;;;;;4405232;32;20093;-36
2021/05/25 00:42:18;;;;;;;0.93;0.47;;;24.20;42.40;;;;;;4404938;32;20104;-36
2021/05/25 00:44:44;;;;;;;0.73;0.40;;;24.10;42.30;;;;;;4390803;32;20057;-37
2021/05/25 00:47:11;;;;;;;1.08;0.35;;;24.10;42.30;;;;;;4404970;32;20502;-36
2021/05/25 00:49:37;;;;;;;0.47;0.40;;;24.10;42.50;;;;;;4405051;32;20152;-35
2021/05/25 00:52:04;;;;;;;0.90;0.50;;;24.10;42.40;;;;;;4405333;32;20061;-38
2021/05/25 00:54:31;;;;;;;1.05;0.50;;;24.00;42.40;;;;;;4404826;32;20072;-37
2021/05/25 00:56:58;;;;;;;0.98;0.43;;;24.00;42.30;;;;;;4404760;32;20054;-37
2021/05/25 00:59:28;;;;;;;1.50;0.50;;;23.90;42.30;;;;;;4378317;32;20477;-36
2021/05/25 01:01:54;;;;;;;2.80;0.45;;;23.90;42.10;;;;;;4404752;32;20089;-36
2021/05/25 01:04:21;;;;;;;1.55;0.50;;;23.90;41.80;;;;;;4390678;32;20069;-38
2021/05/25 01:06:47;;;;;;;1.05;0.50;;;23.90;41.60;;;;;;4404473;32;20058;-36
2021/05/25 01:09:17;;;;;;;3.58;0.62;;;23.90;41.50;;;;;;4404906;32;20069;-36
2021/05/25 01:11:44;;;;;;;2.95;0.50;;;23.80;41.10;;;;;;4404759;32;20049;-37
2021/05/25 01:14:11;;;;;;;1.40;0.50;;;23.90;41.10;;;;;;4404095;32;20068;-36
2021/05/25 01:16:37;;;;;;;0.50;0.45;;;23.70;40.80;;;;;;4404964;32;20510;-35
2021/05/25 01:19:03;;;;;;;0.30;0.30;;;23.80;40.90;;;;;;4404031;32;20065;-36
2021/05/25 01:21:34;;;;;;;0.85;0.45;;;23.80;40.80;;;;;;4394517;32;20490;-36
2021/05/25 01:24:01;;;;;;;0.73;0.43;;;23.90;40.60;;;;;;4389186;32;20080;-37
2021/05/25 01:26:27;;;;;;;0.75;0.50;;;23.90;40.60;;;;;;4388967;32;20477;-36
2021/05/25 01:28:54;;;;;;;1.00;0.50;;;23.90;40.30;;;;;;4389144;32;20055;-37
2021/05/25 01:31:21;;;;;;;1.15;0.57;;;23.80;40.30;;;;;;4388528;32;20526;-38
2021/05/25 01:33:47;;;;;;;0.40;0.40;;;23.80;40.40;;;;;;4389372;32;20054;-37
2021/05/25 01:36:15;;;;;;;0.50;0.30;;;23.80;40.50;;;;;;4388841;32;20061;-37
2021/05/25 01:38:41;;;;;;;0.73;0.40;;;23.90;40.40;;;;;;4375122;32;20152;-37
2021/05/25 01:41:09;;;;;;;1.75;0.60;;;23.90;40.30;;;;;;4389218;32;20058;-35
2021/05/25 01:43:38;;;;;;;4.78;0.50;;;23.90;40.80;;;;;;4374799;32;20046;-37
2021/05/25 01:46:04;;;;;;;1.15;0.75;;;23.90;40.00;;;;;;4388981;32;20137;-36
2021/05/25 01:48:31;;;;;;;5.82;0.50;;;24.00;40.00;;;;;;4388957;32;20137;-37
2021/05/25 01:50:57;;;;;;;3.55;0.40;;;24.00;39.90;;;;;;4388897;32;20096;-36
2021/05/25 01:53:28;;;;;;;0.93;0.52;;;24.10;39.70;;;;;;4388627;32;20073;-36
2021/05/25 01:55:57;;;;;;;0.37;0.30;;;24.20;39.50;;;;;;4389051;32;20054;-36
2021/05/25 01:58:33;;;;;;;0.40;0.30;;;24.20;39.00;;;;;;4388933;32;20078;-37
2021/05/25 02:01:10;;;;;;;0.40;0.25;;;24.30;38.70;;;;;;4388436;32;20081;-37
2021/05/25 02:03:38;;;;;;;0.50;0.37;;;24.40;38.10;;;;;;4362216;32;20129;-37
2021/05/25 02:06:06;;;;;;;0.45;0.30;;;24.50;38.00;;;;;;4388419;32;20069;-38
2021/05/25 02:08:32;;;;;;;0.30;0.20;;;24.60;37.50;;;;;;4374714;32;20978;-37
2021/05/25 02:11:01;;;;;;;1.52;0.70;;;24.70;37.50;;;;;;4388745;32;20152;-36
2021/05/25 02:13:30;;;;;;;1.20;0.20;;;24.80;37.10;;;;;;4388218;32;20134;-37
2021/05/25 02:15:59;;;;;;;0.77;0.40;;;24.90;37.00;;;;;;4388448;32;20234;-36
2021/05/25 02:18:33;;;;;;;2.97;0.50;;;25.00;36.90;;;;;;4388276;32;20239;-36
2021/05/25 02:21:02;;;;;;;0.55;0.47;;;25.10;36.70;;;;;;4381219;32;20494;-37
2021/05/25 02:23:29;;;;;;;0.90;0.50;;;25.20;36.60;;;;;;4403499;32;20073;-38
2021/05/25 02:25:56;;;;;;;1.30;0.40;;;25.30;36.30;;;;;;4389839;32;20084;-38
2021/05/25 02:28:23;;;;;;;0.47;0.30;;;25.50;36.10;;;;;;4403256;32;20188;-37
2021/05/25 02:30:49;;;;;;;0.57;0.37;;;25.60;35.90;;;;;;4403769;32;20070;-37
2021/05/25 02:33:17;;;;;;;1.70;0.40;;;25.80;35.20;;;;;;4389573;32;20081;-36
2021/05/25 02:35:44;;;;;;;9.95;0.60;;;25.90;35.00;;;;;;4403487;32;20081;-37
2021/05/25 02:38:13;;;;;;;0.30;0.30;;;26.10;34.80;;;;;;4403474;32;20097;-36
2021/05/25 02:40:44;;;;;;;0.95;0.30;;;26.10;34.40;;;;;;4403758;32;20185;-36
2021/05/25 02:43:11;;;;;;;2.85;0.32;;;26.10;34.50;;;;;;4388564;32;20141;-37
2021/05/25 02:45:37;;;;;;;0.98;0.40;;;26.10;34.40;;;;;;4403196;32;20057;-37
2021/05/25 02:48:05;;;;;;;0.40;0.30;;;26.20;34.70;;;;;;4388981;32;20145;-37
2021/05/25 02:50:32;;;;;;;0.82;0.40;;;26.20;34.70;;;;;;4403352;32;20533;-37
2021/05/25 02:52:58;;;;;;;0.20;0.20;;;26.10;34.80;;;;;;4403260;32;20509;-38
2021/05/25 02:55:33;;;;;;;1.73;0.40;;;26.10;35.10;;;;;;4389620;32;20130;-37
2021/05/25 02:58:01;;;;;;;1.48;0.50;;;26.10;35.20;;;;;;4403950;32;20160;-39
2021/05/25 03:00:36;;;;;;;1.10;0.30;;;26.20;35.20;;;;;;4403839;32;20092;-38
2021/05/25 03:03:03;;;;;;;3.10;0.47;;;26.20;35.30;;;;;;4391447;32;20484;-38
2021/05/25 03:05:29;;;;;;;1.25;0.30;;;26.30;35.20;;;;;;4404812;32;20605;-38
2021/05/25 03:07:58;;;;;;;3.95;2.75;;;26.40;34.90;;;;;;4403530;32;20164;-38
2021/05/25 03:10:27;;;;;;;0.60;0.40;;;26.60;35.10;;;;;;4402984;32;20061;-37
2021/05/25 03:12:54;;;;;;;0.45;0.35;;;26.70;34.70;;;;;;4403197;32;20073;-37
2021/05/25 03:15:32;;;;;;;0.82;0.55;;;26.90;34.50;;;;;;4403171;32;20061;-37
2021/05/25 03:17:59;;;;;;;2.05;0.68;;;27.00;34.60;;;;;;4402833;32;20076;-38
2021/05/25 03:20:26;;;;;;;0.37;0.28;;;27.00;34.20;;;;;;4399947;32;20514;-37
2021/05/25 03:22:52;;;;;;;1.48;0.43;;;27.10;34.40;;;;;;4387976;32;20073;-37
2021/05/25 03:25:19;;;;;;;0.52;0.30;;;27.10;34.00;;;;;;4387795;32;20050;-39
2021/05/25 03:27:45;;;;;;;1.98;0.50;;;27.10;33.90;;;;;;4387909;32;20159;-38
2021/05/25 03:30:15;;;;;;;0.57;0.40;;;27.10;33.90;;;;;;4387834;32;20526;-37
2021/05/25 03:32:42;;;;;;;2.75;0.65;;;27.10;34.10;;;;;;4387512;32;20564;-38
2021/05/25 03:35:10;;;;;;;0.20;0.20;;;27.10;33.90;;;;;;4373688;32;20167;-37
2021/05/25 03:37:36;;;;;;;1.48;0.40;;;27.10;33.90;;;;;;4361244;32;20554;-37
2021/05/25 03:40:05;;;;;;;1.27;0.40;;;27.00;33.80;;;;;;4373616;32;20545;-37
2021/05/25 03:42:31;;;;;;;7.57;0.62;;;27.00;33.90;;;;;;4387622;32;20137;-37
2021/05/25 03:44:59;;;;;;;2.40;0.60;;;27.00;33.70;;;;;;4387618;32;20169;-37
2021/05/25 03:47:26;;;;;;;7.12;0.70;;;27.10;33.90;;;;;;4387616;32;20096;-37
2021/05/25 03:49:53;;;;;;;1.23;0.40;;;27.10;33.90;;;;;;4387366;32;20571;-37
2021/05/25 03:52:19;;;;;;;0.40;0.30;;;27.10;33.60;;;;;;4387785;32;20094;-38
2021/05/25 03:54:56;;;;;;;0.68;0.30;;;27.20;33.80;;;;;;4389029;32;20580;-38
2021/05/25 03:59:55;;;;;;;0.43;0.40;;;27.20;33.70;;;;;;4372453;32;20075;-38
2021/05/25 04:02:22;;;;;;;0.95;0.50;;;27.20;33.50;;;;;;4373014;32;20513;-38
2021/05/25 04:04:48;;;;;;;1.00;0.30;;;27.30;33.10;;;;;;4360356;32;20081;-38
2021/05/25 04:07:15;;;;;;;2.70;0.20;;;27.20;33.80;;;;;;4372897;32;20160;-37
2021/05/25 04:09:41;;;;;;;5.28;0.60;;;27.30;33.50;;;;;;4360384;32;20526;-37
2021/05/25 04:12:08;;;;;;;2.95;0.30;;;27.30;33.30;;;;;;4372734;32;20077;-38
2021/05/25 04:14:35;;;;;;;2.17;0.68;;;27.40;33.30;;;;;;4372816;32;20073;-39
2021/05/25 04:17:01;;;;;;;5.78;0.77;;;27.50;33.10;;;;;;4360137;32;20078;-38
2021/05/25 04:19:28;;;;;;;2.67;0.40;;;27.60;32.40;;;;;;4360070;32;20542;-38
2021/05/25 04:21:54;;;;;;;0.47;0.40;;;27.60;32.70;;;;;;4384296;32;20109;-39
2021/05/25 04:24:23;;;;;;;1.40;0.40;;;27.50;32.80;;;;;;4387561;32;20530;-38
2021/05/25 04:26:50;;;;;;;6.10;0.40;;;27.50;33.10;;;;;;4387406;32;20073;-37
2021/05/25 04:29:16;;;;;;;7.07;0.82;;;27.60;33.80;;;;;;4374987;32;20068;-36
2021/05/25 04:31:43;;;;;;;2.00;0.60;;;27.60;34.00;;;;;;4401963;32;20563;-37
2021/05/25 04:34:09;;;;;;;2.15;0.62;;;27.70;34.00;;;;;;4390984;32;20159;-38
2021/05/25 04:36:35;;;;;;;0.62;0.40;;;27.80;33.80;;;;;;4404607;32;20165;-38
2021/05/25 04:39:03;;;;;;;1.73;0.50;;;27.80;34.00;;;;;;4391087;32;20054;-37
2021/05/25 04:41:29;;;;;;;3.58;0.60;;;27.80;33.70;;;;;;4404879;32;20620;-38
2021/05/25 04:43:56;;;;;;;1.85;0.70;;;27.80;33.80;;;;;;4405185;32;20102;-37
2021/05/25 04:46:23;;;;;;;1.40;0.52;;;27.70;33.70;;;;;;4404831;32;20074;-39
2021/05/25 04:48:49;;;;;;;5.07;0.60;;;27.70;33.80;;;;;;4403164;32;20081;-38
2021/05/25 04:51:15;;;;;;;2.20;0.73;;;27.60;34.00;;;;;;4404718;32;20081;-38
2021/05/25 04:53:42;;;;;;;5.70;0.70;;;27.60;34.00;;;;;;4404453;32;20093;-37
2021/05/25 04:56:08;;;;;;;1.08;0.50;;;27.50;33.90;;;;;;4404532;32;20064;-38
2021/05/25 04:58:35;;;;;;;1.23;0.60;;;27.60;34.00;;;;;;4404431;32;20473;-36
2021/05/25 05:01:01;;;;;;;1.05;0.70;;;27.60;34.00;;;;;;4404140;32;20053;-38
2021/05/25 05:03:27;;;;;;;1.70;0.88;;;27.60;34.10;;;;;;4404227;32;20200;-39
2021/05/25 05:05:55;;;;;;;0.40;0.35;;;27.60;34.10;;;;;;4403728;32;20516;-38
2021/05/25 05:08:21;;;;;;;2.78;0.70;;;27.70;34.30;;;;;;4405015;32;20063;-38
2021/05/25 05:10:47;;;;;;;0.90;0.40;;;27.60;34.10;;;;;;4404531;32;20073;-38
2021/05/25 05:13:14;;;;;;;2.33;0.60;;;27.70;34.30;;;;;;4404410;32;20161;-38
2021/05/25 05:15:40;;;;;;;2.08;0.73;;;27.70;34.20;;;;;;4404384;32;20077;-37
2021/05/25 05:18:07;;;;;;;0.77;0.60;;;27.70;34.40;;;;;;4404236;32;20082;-38
2021/05/25 05:20:33;;;;;;;2.30;0.80;;;27.70;34.30;;;;;;4400876;32;20153;-39
2021/05/25 05:23:00;;;;;;;0.45;0.35;;;27.60;34.30;;;;;;4388923;32;20068;-38
2021/05/25 05:25:27;;;;;;;2.87;0.73;;;27.60;34.80;;;;;;4389233;32;20064;-38
2021/05/25 05:27:53;;;;;;;0.73;0.40;;;27.50;34.80;;;;;;4375369;32;20744;-38
2021/05/25 05:30:20;;;;;;;0.43;0.30;;;27.50;34.80;;;;;;4389103;32;20054;-38
2021/05/25 05:32:46;;;;;;;0.90;0.22;;;27.60;35.30;;;;;;4389378;32;20538;-39
2021/05/25 05:35:13;;;;;;;0.82;0.47;;;27.70;35.40;;;;;;4388321;32;20507;-41
2021/05/25 05:37:40;;;;;;;7.18;0.75;;;27.80;35.70;;;;;;4388570;32;20109;-38
2021/05/25 05:40:07;;;;;;;0.77;0.43;;;27.80;35.40;;;;;;4388871;32;20133;-38
2021/05/25 05:42:34;;;;;;;5.28;0.95;;;27.90;35.40;;;;;;4388995;32;20141;-38
2021/05/25 05:45:00;;;;;;;0.57;0.30;;;27.90;35.40;;;;;;4388853;32;20054;-39
2021/05/25 05:47:26;;;;;;;17.87;1.05;;;27.90;35.10;;;;;;4388390;32;20064;-38
2021/05/25 05:49:53;;;;;;;1.25;0.50;;;27.90;34.00;;;;;;4388771;32;20081;-37
2021/05/25 05:52:19;;;;;;;1.90;0.80;;;27.90;33.60;;;;;;4374596;32;20077;-38
2021/05/25 05:54:47;;;;;;;0.82;0.60;;;28.00;33.20;;;;;;4388518;32;20094;-39
2021/05/25 05:57:14;;;;;;;3.60;0.50;;;28.00;32.30;;;;;;4374573;32;20525;-39
2021/05/25 05:59:40;;;;;;;0.47;0.32;;;28.00;32.20;;;;;;4362338;32;20451;-38
2021/05/25 06:02:07;;;;;;;2.47;0.55;;;28.10;32.20;;;;;;4388619;32;20057;-39
2021/05/25 06:04:33;;;;;;;3.33;0.60;;;28.10;31.80;;;;;;4388141;32;20474;-38
2021/05/25 06:07:00;;;;;;;3.15;0.50;;;28.10;31.90;;;;;;4388549;32;20058;-39
2021/05/25 06:09:26;;;;;;;0.85;0.50;;;28.10;31.90;;;;;;4388402;32;20153;-39
2021/05/25 06:11:53;;;;;;;1.65;0.50;;;28.30;32.20;;;;;;4370982;32;20198;-39
2021/05/25 06:14:20;;;;;;;4.10;0.68;;;28.40;32.00;;;;;;4358550;32;20286;-38
2021/05/25 06:16:46;;;;;;;3.15;0.50;;;28.50;32.00;;;;;;4370666;32;20090;-39
2021/05/25 06:19:13;;;;;;;3.12;0.45;;;28.60;31.30;;;;;;4370616;32;20090;-38
2021/05/25 06:21:39;;;;;;;1.12;0.50;;;28.70;31.30;;;;;;4381244;32;20074;-38
2021/05/25 06:24:06;;;;;;;0.40;0.30;;;28.90;31.10;;;;;;4385509;32;20167;-42
2021/05/25 06:26:33;;;;;;;5.55;0.45;;;29.10;30.70;;;;;;4385599;32;20153;-39
2021/05/25 06:28:59;;;;;;;4.37;0.90;;;29.20;30.50;;;;;;4385645;32;20081;-39
2021/05/25 06:31:26;;;;;;;5.75;0.60;;;29.20;29.90;;;;;;4385720;32;20162;-39
2021/05/25 06:33:52;;;;;;;0.93;0.50;;;29.40;30.00;;;;;;4385679;32;20073;-39
2021/05/25 06:36:18;;;;;;;3.03;0.40;;;29.50;29.80;;;;;;4385287;32;20151;-39
2021/05/25 06:38:45;;;;;;;1.52;0.65;;;29.60;30.00;;;;;;4385180;32;20588;-37
2021/05/25 06:41:11;;;;;;;1.05;0.50;;;29.70;29.40;;;;;;4385917;32;20552;-39
2021/05/25 06:43:38;;;;;;;1.42;0.50;;;29.80;29.40;;;;;;4399664;32;20081;-38
2021/05/25 06:46:06;;;;;;;3.25;0.77;;;29.90;29.40;;;;;;4403279;32;20087;-38
2021/05/25 06:48:34;;;;;;;1.77;0.52;;;30.00;29.50;;;;;;4389474;32;20137;-38
2021/05/25 06:51:04;;;;;;;1.65;0.30;;;30.00;29.40;;;;;;4402803;32;20063;-38
2021/05/25 06:53:31;;;;;;;2.90;0.70;;;30.00;29.60;;;;;;4402761;32;20461;-40
2021/05/25 06:55:57;;;;;;;1.52;0.50;;;30.10;29.30;;;;;;4402788;32;20465;-38
2021/05/25 06:58:24;;;;;;;4.18;0.82;;;30.20;29.30;;;;;;4388681;32;20097;-39
2021/05/25 07:00:50;;;;;;;2.97;0.73;;;30.10;29.30;;;;;;4403147;32;20509;-37
2021/05/25 07:03:17;;;;;;;1.10;0.47;;;30.10;29.30;;;;;;4403288;32;20515;-39
2021/05/25 07:05:43;;;;;;;3.78;0.50;;;30.10;29.50;;;;;;4402559;32;20156;-39
2021/05/25 07:08:10;;;;;;;5.85;0.93;;;30.10;29.40;;;;;;4402703;32;20184;-39
2021/05/25 07:10:36;;;;;;;6.10;0.70;;;30.00;29.50;;;;;;4402751;32;20141;-39
2021/05/25 07:13:03;;;;;;;2.28;0.50;;;30.00;29.70;;;;;;4403134;32;20144;-39
2021/05/25 07:15:29;;;;;;;2.30;0.55;;;30.00;29.70;;;;;;4388873;32;20093;-38
2021/05/25 07:17:56;;;;;;;1.50;0.60;;;30.10;29.70;;;;;;4402953;32;20073;-39
2021/05/25 07:20:24;;;;;;;2.40;0.70;;;30.10;29.60;;;;;;4386523;32;20046;-39
2021/05/25 07:22:53;;;;;;;2.22;0.68;;;30.10;29.50;;;;;;4387588;32;20618;-38
2021/05/25 07:25:25;;;;;;;1.23;0.57;;;30.10;29.60;;;;;;4373940;32;20503;-39
2021/05/25 07:27:52;;;;;;;3.17;0.62;;;30.20;29.50;;;;;;4387622;32;20531;-38
2021/05/25 07:30:19;;;;;;;1.55;0.70;;;30.30;29.40;;;;;;4389795;32;20453;-38
2021/05/25 07:32:46;;;;;;;1.73;0.77;;;30.40;29.50;;;;;;4390562;32;20058;-40
2021/05/25 07:35:13;;;;;;;2.78;0.70;;;30.60;29.40;;;;;;4390650;32;20078;-40
2021/05/25 07:37:40;;;;;;;3.75;0.62;;;30.80;29.20;;;;;;4390255;32;20101;-39
2021/05/25 07:40:08;;;;;;;0.75;0.55;;;30.80;29.00;;;;;;4390612;32;20152;-41
2021/05/25 07:42:34;;;;;;;5.57;1.05;;;30.90;29.00;;;;;;4377009;32;20516;-40
2021/05/25 07:45:02;;;;;;;2.58;0.50;;;31.00;28.90;;;;;;4390797;32;20085;-38
2021/05/25 07:47:29;;;;;;;4.62;0.80;;;31.00;28.90;;;;;;4390890;32;20123;-38
2021/05/25 07:49:56;;;;;;;1.83;0.52;;;31.00;28.60;;;;;;4390726;32;20069;-37
2021/05/25 07:52:23;;;;;;;4.57;0.80;;;31.10;28.80;;;;;;4390481;32;20554;-40
2021/05/25 07:54:50;;;;;;;2.60;0.50;;;31.10;28.40;;;;;;4376509;32;20154;-38
2021/05/25 07:57:16;;;;;;;3.62;0.80;;;31.10;28.50;;;;;;4390079;32;20092;-39
2021/05/25 07:59:43;;;;;;;5.28;0.60;;;31.30;28.40;;;;;;4390231;32;20066;-39
2021/05/25 08:02:09;;;;;;;0.55;0.35;;;31.30;28.30;;;;;;4390409;32;20073;-38
2021/05/25 08:04:35;;;;;;;0.30;0.30;;;31.40;27.70;;;;;;4390062;32;20062;-39
2021/05/25 08:07:02;;;;;;;0.52;0.30;;;31.60;27.80;;;;;;4390694;32;20649;-39
2021/05/25 08:09:28;;;;;;;0.88;0.35;;;31.80;27.90;;;;;;4376005;32;20072;-39
2021/05/25 08:11:55;;;;;;;5.68;0.60;;;31.90;27.40;;;;;;4390088;32;20527;-39
2021/05/25 08:14:22;;;;;;;2.60;0.50;;;31.80;27.00;;;;;;4390156;32;20061;-38
2021/05/25 08:16:48;;;;;;;0.90;0.50;;;31.90;27.20;;;;;;4390114;32;20062;-38
2021/05/25 08:19:38;;;;;;;0.55;0.30;;;31.90;27.10;;;;;;4390215;32;20510;-39
2021/05/25 08:22:01;;;;;;;1.77;0.60;;;31.90;27.20;;;;;;4402651;32;20065;-39
2021/05/25 08:24:28;;;;;;;0.45;0.22;;;32.00;27.30;;;;;;4404622;32;20573;-40
2021/05/25 08:26:54;;;;;;;1.73;0.60;;;31.90;27.50;;;;;;4404956;32;20098;-39
2021/05/25 08:29:21;;;;;;;4.72;0.57;;;32.00;27.50;;;;;;4405020;32;20524;-39
2021/05/25 08:31:47;;;;;;;3.87;0.57;;;32.20;27.50;;;;;;4405325;32;20169;-40
2021/05/25 08:34:13;;;;;;;8.07;0.60;;;32.20;27.30;;;;;;4404913;32;20066;-39
2021/05/25 08:36:40;;;;;;;15.32;1.42;;;32.30;27.50;;;;;;4404500;32;20450;-39
2021/05/25 08:39:06;;;;;;;12.00;1.00;;;32.30;27.40;;;;;;4404808;32;20061;-40
2021/05/25 08:41:34;;;;;;;0.70;0.40;;;32.40;27.50;;;;;;4404194;32;20544;-40
2021/05/25 08:44:01;;;;;;;6.57;0.55;;;32.40;27.40;;;;;;4405012;32;20551;-39
2021/05/25 08:46:28;;;;;;;1.55;0.55;;;32.40;27.10;;;;;;4404806;32;20082;-38
2021/05/25 08:48:55;;;;;;;4.32;0.68;;;32.20;27.30;;;;;;4404730;32;20084;-39
2021/05/25 08:51:21;;;;;;;0.37;0.30;;;31.90;27.90;;;;;;4365975;32;20137;-38
2021/05/25 08:53:47;;;;;;;0.37;0.30;;;31.50;28.80;;;;;;4404841;32;20092;-37
2021/05/25 08:56:14;;;;;;;1.67;0.60;;;31.10;29.70;;;;;;4405211;32;20066;-38
2021/05/25 08:58:40;;;;;;;5.65;0.55;;;30.70;30.70;;;;;;4405451;32;20493;-39
2021/05/25 09:01:07;;;;;;;2.55;0.88;;;30.30;32.00;;;;;;4405379;32;20146;-39
2021/05/25 09:03:33;;;;;;;3.05;0.60;;;29.90;32.10;;;;;;4405268;32;20061;-39
2021/05/25 09:06:09;;;;;;;4.50;0.60;;;29.70;32.10;;;;;;4404357;32;20065;-39
2021/05/25 09:08:36;;;;;;;0.85;0.40;;;29.50;31.70;;;;;;4404740;32;20516;-38
2021/05/25 09:11:10;;;;;;;0.82;0.28;;;29.30;31.90;;;;;;4404924;32;20061;-38
2021/05/25 09:13:37;;;;;;;3.92;0.50;;;29.20;31.90;;;;;;4404509;32;20077;-39
2021/05/25 09:16:08;;;;;;;5.68;0.70;;;29.20;31.90;;;;;;4390390;32;20065;-38
2021/05/25 09:18:45;;;;;;;5.25;0.90;;;29.20;32.80;;;;;;4378920;32;20526;-39
2021/05/25 09:21:37;;;;;;;3.22;0.50;;;29.30;34.30;;;;;;4396840;32;20153;-41
2021/05/25 09:24:04;;;;;;;3.05;0.70;;;29.40;35.20;;;;;;4378428;32;20115;-40
2021/05/25 09:26:39;;;;;;;3.12;0.60;;;29.40;35.20;;;;;;4389245;32;20093;-39
2021/05/25 09:29:08;;;;;;;1.98;0.60;;;29.40;35.30;;;;;;4388846;32;20465;-38
2021/05/25 09:31:45;;;;;;;10.75;0.60;;;29.50;36.10;;;;;;4389483;32;20538;-40
2021/05/25 09:34:22;;;;;;;0.70;0.40;;;29.50;35.30;;;;;;4388897;32;20078;-38
2021/05/25 09:37:06;;;;;;;0.82;0.65;;;29.50;35.10;;;;;;4388822;32;20109;-41
2021/05/25 09:39:36;;;;;;;3.58;0.88;;;29.40;35.30;;;;;;4388714;32;20072;-40
2021/05/25 09:42:07;;;;;;;0.68;0.62;;;29.10;35.60;;;;;;4375440;32;20070;-38
2021/05/25 09:44:37;;;;;;;2.60;0.80;;;28.60;35.90;;;;;;4389081;32;20485;-39
2021/05/25 09:47:05;;;;;;;3.22;0.60;;;28.20;36.60;;;;;;4374671;32;20061;-37
2021/05/25 09:49:32;;;;;;;1.15;0.70;;;27.80;36.90;;;;;;4388569;32;20070;-37
2021/05/25 09:52:10;;;;;;;2.70;0.55;;;27.60;37.20;;;;;;4388504;32;20167;-38
2021/05/25 09:54:37;;;;;;;3.37;0.68;;;27.40;37.40;;;;;;4388734;32;20145;-38
2021/05/25 09:57:08;;;;;;;1.60;0.60;;;27.00;38.00;;;;;;4388265;32;20061;-36
2021/05/25 09:59:38;;;;;;;6.07;0.60;;;26.80;38.70;;;;;;4388477;32;20078;-39
2021/05/25 10:02:21;;;;;;;0.88;0.50;;;26.70;38.90;;;;;;4388864;32;20555;-38
2021/05/25 10:05:07;;;;;;;1.00;0.45;;;26.20;40.40;;;;;;4374053;32;20194;-37
2021/05/25 10:07:37;;;;;;;2.95;0.80;;;25.90;41.20;;;;;;4388305;32;20093;-36
2021/05/25 10:10:05;;;;;;;2.45;0.82;;;25.70;41.50;;;;;;4388512;32;20149;-37
2021/05/25 10:12:31;;;;;;;4.22;0.88;;;25.50;42.40;;;;;;4388303;32;20097;-39
2021/05/25 10:14:59;;;;;;;6.22;1.35;;;25.30;43.30;;;;;;4388571;32;20446;-37
2021/05/25 10:20:08;;;;;;;3.95;1.10;;;24.90;45.60;;;;;;4388578;32;21244;-39
2021/05/25 10:22:36;;;;;;;3.95;1.73;;;24.90;45.80;;;;;;4403602;32;20080;-38
2021/05/25 10:25:05;;;;;;;1.67;1.33;;;24.70;46.10;;;;;;4403299;32;20088;-38
2021/05/25 10:27:32;;;;;;;2.67;1.37;;;24.50;46.60;;;;;;4389633;32;20097;-38
2021/05/25 10:29:58;;;;;;;4.90;1.20;;;24.50;47.10;;;;;;4389086;32;20537;-37
2021/05/25 10:32:25;;;;;;;15.80;1.98;;;24.50;47.00;;;;;;4403352;32;20079;-38
2021/05/25 10:34:53;;;;;;;3.83;1.33;;;24.60;46.80;;;;;;4403262;32;20141;-39
2021/05/25 10:37:23;;;;;;;7.57;1.35;;;24.50;45.70;;;;;;4402889;32;20069;-38
2021/05/25 10:39:55;;;;;;;1.95;1.10;;;24.50;45.90;;;;;;4402849;32;20580;-40
2021/05/25 10:42:22;;;;;;;3.67;0.75;;;24.50;45.20;;;;;;4403350;32;20490;-37
2021/05/25 10:45:10;;;;;;;7.70;1.52;;;24.50;43.80;;;;;;4403305;32;20061;-41
2021/05/25 10:50:46;;;;;;;1.10;0.70;;;24.50;42.80;;;;;;4388804;32;20178;-37
2021/05/25 10:53:26;;;;;;;3.17;0.40;;;24.80;41.90;;;;;;4377341;32;20179;-41
2021/05/25 10:55:53;;;;;;;0.57;0.50;;;24.80;41.30;;;;;;4378005;32;20065;-40
2021/05/25 10:58:34;;;;;;;2.72;0.70;;;25.00;40.10;;;;;;4388680;32;20160;-38
2021/05/25 11:01:08;;;;;;;2.55;0.80;;;25.10;39.40;;;;;;4403132;32;20069;-38
2021/05/25 11:03:35;;;;;;;3.20;1.33;;;25.30;39.40;;;;;;4402372;32;20168;-38
2021/05/25 11:06:06;;;;;;;2.47;0.90;;;25.50;39.00;;;;;;4388966;32;20059;-38
2021/05/25 11:08:40;;;;;;;6.62;0.68;;;25.60;38.60;;;;;;4389015;32;20061;-38
2021/05/25 11:11:15;;;;;;;4.93;0.90;;;25.70;38.90;;;;;;4389331;32;20574;-38
2021/05/25 11:13:45;;;;;;;;;;;25.70;38.40;;;;;;4403525;32;20065;-40
2021/05/25 11:16:32;;;;;;;1.75;1.12;;;25.80;38.60;;;;;;4402998;32;19956;-40
2021/05/25 11:19:10;;;;;;;6.00;1.00;;;25.70;38.70;;;;;;4389438;32;20077;-40
2021/05/25 11:24:30;;;;;;;2.15;1.30;;;25.60;39.20;;;;;;4387716;32;20055;-41
2021/05/25 11:27:07;;;;;;;4.22;1.95;;;25.70;39.20;;;;;;4387766;32;20077;-38
2021/05/25 11:29:51;;;;;;;7.72;1.30;;;25.80;39.30;;;;;;4387949;32;20085;-39
2021/05/25 11:32:22;;;;;;;4.05;0.80;;;25.90;38.10;;;;;;4374410;32;20073;-38
2021/05/25 11:35:07;;;;;;;3.85;1.25;;;26.00;37.70;;;;;;4387460;32;20081;-40
2021/05/25 11:37:39;;;;;;;3.20;0.68;;;26.10;37.00;;;;;;4387068;32;20103;-39
2021/05/25 11:40:15;;;;;;;5.20;1.20;;;26.20;36.50;;;;;;4387249;32;20113;-38
2021/05/25 11:42:44;;;;;;;3.85;1.55;;;26.20;35.90;;;;;;4388136;32;20096;-39
2021/05/25 11:45:11;;;;;;;4.62;0.73;;;26.30;36.90;;;;;;4373807;32;20141;-40
2021/05/25 11:47:38;;;;;;;2.60;1.08;;;26.40;37.10;;;;;;4387320;32;20145;-38
2021/05/25 11:50:06;;;;;;;7.22;1.60;;;26.50;37.00;;;;;;4373633;32;20073;-39
2021/05/25 11:52:38;;;;;;;6.43;1.15;;;26.60;37.00;;;;;;4387470;32;20065;-40
2021/05/25 11:55:07;;;;;;;4.43;1.27;;;26.60;37.50;;;;;;4387382;32;20184;-39
2021/05/25 11:57:39;;;;;;;3.97;1.73;;;26.60;37.20;;;;;;4387675;32;20078;-39
2021/05/25 12:00:16;;;;;;;3.95;1.10;;;26.60;37.10;;;;;;4386976;32;20066;-39
2021/05/25 12:02:51;;;;;;;1.77;0.88;;;26.60;37.20;;;;;;4387862;32;20155;-39
2021/05/25 12:05:20;;;;;;;3.22;1.25;;;26.50;37.20;;;;;;4387720;32;20167;-38
2021/05/25 12:07:51;;;;;;;4.45;1.05;;;26.40;37.20;;;;;;4387593;32;20073;-40
2021/05/25 12:10:20;;;;;;;1.30;0.82;;;26.30;37.50;;;;;;4387629;32;20062;-38
2021/05/25 12:12:47;;;;;;;2.45;0.82;;;26.30;38.50;;;;;;4387779;32;20057;-39
2021/05/25 12:15:19;;;;;;;6.37;0.85;;;26.20;39.10;;;;;;4374269;32;20054;-38
2021/05/25 12:17:59;;;;;;;2.00;0.40;;;26.10;38.40;;;;;;4390325;32;20531;-41
2021/05/25 12:20:40;;;;;;;2.67;0.62;;;26.10;38.70;;;;;;4378741;32;20069;-40
2021/05/25 12:23:11;;;;;;;1.48;0.50;;;26.00;39.00;;;;;;4404683;32;20061;-39
2021/05/25 12:25:38;;;;;;;1.17;0.55;;;26.10;39.20;;;;;;4405164;32;20238;-38
2021/05/25 12:28:14;;;;;;;5.35;0.93;;;26.10;39.40;;;;;;4405265;32;20157;-40
2021/05/25 12:30:47;;;;;;;3.80;0.68;;;26.10;39.30;;;;;;4404633;32;20076;-40
2021/05/25 12:33:29;;;;;;;3.70;0.85;;;26.10;39.50;;;;;;4405224;32;20100;-38
2021/05/25 12:36:37;;;;;;;4.78;0.90;;;26.10;39.50;;;;;;4405061;32;20110;-39
2021/05/25 12:39:08;;;;;;;3.87;0.80;;;25.80;39.30;;;;;;4404948;32;20062;-39
2021/05/25 12:41:51;;;;;;;6.37;1.00;;;25.80;38.80;;;;;;4404537;32;20119;-38
2021/05/25 12:44:21;;;;;;;3.12;0.62;;;25.80;39.60;;;;;;4405094;32;20057;-42
2021/05/25 12:46:55;;;;;;;1.77;0.50;;;25.70;38.00;;;;;;4404982;32;20089;-39
2021/05/25 12:49:40;;;;;;;1.33;0.70;;;25.60;37.90;;;;;;4404934;32;20088;-39
2021/05/25 12:52:34;;;;;;;0.88;0.65;;;25.50;37.50;;;;;;4390709;32;20076;-40
2021/05/25 12:55:09;;;;;;;3.25;0.80;;;25.50;37.90;;;;;;4404249;32;20072;-39
2021/05/25 12:57:48;;;;;;;2.05;0.68;;;25.50;37.80;;;;;;4404430;32;20571;-45
2021/05/25 13:00:41;;;;;;;2.92;0.55;;;25.50;37.50;;;;;;4404585;32;20065;-38
2021/05/25 13:03:24;;;;;;;0.98;0.60;;;25.50;37.70;;;;;;4404121;32;20085;-41
2021/05/25 13:05:52;;;;;;;0.77;0.40;;;25.40;35.40;;;;;;4404202;32;20541;-37
2021/05/25 13:08:31;;;;;;;1.58;0.55;;;25.30;34.80;;;;;;4404439;32;20066;-38